sensor_id;sensor_type;location;lat;lon;timestamp;temperature;humidity
15328;DHT22;7764;51.430;6.840;2022-07-29T00:00:17;20.80;99.90
15328;DHT22;7764;51.430;6.840;2022-07-29T00:02:44;20.70;99.90
15328;DHT22;7764;51.430;6.840;2022-07-29T00:05:11;20.80;99.90
15328;DHT22;7764;51.430;6.840;2022-07-29T00:07:39;20.70;99.90
15328;DHT22;7764;51.430;6.840;2022-07-29T00:10:08;20.70;99.90
15328;DHT22;7764;51.430;6.840;2022-07-29T00:12:34;20.70;99.90
15328;DHT22;7764;51.430;6.840;2022-07-29T00:15:02;20.70;99.90
15328;DHT22;7764;51.430;6.840;2022-07-29T00:17:29;20.60;99.90
15328;DHT22;7764;51.430;6.840;2022-07-29T00:19:56;20.60;99.90
15328;DHT22;7764;51.430;6.840;2022-07-29T00:22:23;20.50;99.90
15328;DHT22;7764;51.430;6.840;2022-07-29T00:24:50;20.50;99.90
15328;DHT22;7764;51.430;6.840;2022-07-29T00:27:18;20.50;99.90
15328;DHT22;7764;51.430;6.840;2022-07-29T00:29:45;20.50;99.90
15328;DHT22;7764;51.430;6.840;2022-07-29T00:32:12;20.50;99.90
15328;DHT22;7764;51.430;6.840;2022-07-29T00:34:39;20.40;99.90
15328;DHT22;7764;51.430;6.840;2022-07-29T00:37:23;20.40;99.90
15328;DHT22;7764;51.430;6.840;2022-07-29T00:39:50;20.40;99.90
15328;DHT22;7764;51.430;6.840;2022-07-29T00:42:18;20.40;99.90
15328;DHT22;7764;51.430;6.840;2022-07-29T00:44:45;20.40;99.90
15328;DHT22;7764;51.430;6.840;2022-07-29T00:47:12;20.30;99.90
15328;DHT22;7764;51.430;6.840;2022-07-29T00:49:40;20.30;99.90
15328;DHT22;7764;51.430;6.840;2022-07-29T00:52:09;20.30;99.90
15328;DHT22;7764;51.430;6.840;2022-07-29T00:54:38;20.30;99.90
15328;DHT22;7764;51.430;6.840;2022-07-29T00:57:06;20.30;99.90
15328;DHT22;7764;51.430;6.840;2022-07-29T00:59:34;20.20;99.90
15328;DHT22;7764;51.430;6.840;2022-07-29T01:02:02;20.20;99.90
15328;DHT22;7764;51.430;6.840;2022-07-29T01:04:30;20.10;99.90
15328;DHT22;7764;51.430;6.840;2022-07-29T01:06:57;20.10;99.90
15328;DHT22;7764;51.430;6.840;2022-07-29T01:09:24;20.10;99.90
15328;DHT22;7764;51.430;6.840;2022-07-29T01:11:52;20.10;99.90
15328;DHT22;7764;51.430;6.840;2022-07-29T01:14:21;20.00;99.90
15328;DHT22;7764;51.430;6.840;2022-07-29T01:16:53;20.00;99.90
15328;DHT22;7764;51.430;6.840;2022-07-29T01:19:39;20.10;99.90
15328;DHT22;7764;51.430;6.840;2022-07-29T01:22:25;20.00;99.90
15328;DHT22;7764;51.430;6.840;2022-07-29T01:25:19;20.00;99.90
15328;DHT22;7764;51.430;6.840;2022-07-29T01:28:08;20.00;99.90
15328;DHT22;7764;51.430;6.840;2022-07-29T01:30:44;20.00;99.90
15328;DHT22;7764;51.430;6.840;2022-07-29T01:33:15;20.00;99.90
15328;DHT22;7764;51.430;6.840;2022-07-29T01:35:59;20.00;99.90
15328;DHT22;7764;51.430;6.840;2022-07-29T01:38:28;20.00;99.90
15328;DHT22;7764;51.430;6.840;2022-07-29T01:41:02;19.90;99.90
15328;DHT22;7764;51.430;6.840;2022-07-29T01:43:35;20.00;99.90
15328;DHT22;7764;51.430;6.840;2022-07-29T01:46:06;20.00;99.90
15328;DHT22;7764;51.430;6.840;2022-07-29T01:48:42;20.00;99.90
15328;DHT22;7764;51.430;6.840;2022-07-29T01:51:14;20.00;99.90
15328;DHT22;7764;51.430;6.840;2022-07-29T01:53:47;20.00;99.90
15328;DHT22;7764;51.430;6.840;2022-07-29T01:56:18;19.90;99.90
15328;DHT22;7764;51.430;6.840;2022-07-29T01:58:47;20.00;99.90
15328;DHT22;7764;51.430;6.840;2022-07-29T02:01:18;19.90;99.90
15328;DHT22;7764;51.430;6.840;2022-07-29T02:03:46;19.90;99.90
15328;DHT22;7764;51.430;6.840;2022-07-29T02:06:17;19.90;99.90
15328;DHT22;7764;51.430;6.840;2022-07-29T02:08:45;19.90;99.90
15328;DHT22;7764;51.430;6.840;2022-07-29T02:11:13;19.90;99.90
15328;DHT22;7764;51.430;6.840;2022-07-29T02:13:41;19.90;99.90
15328;DHT22;7764;51.430;6.840;2022-07-29T02:16:09;19.90;99.90
15328;DHT22;7764;51.430;6.840;2022-07-29T02:18:40;19.90;99.90
15328;DHT22;7764;51.430;6.840;2022-07-29T02:21:09;19.90;99.90
15328;DHT22;7764;51.430;6.840;2022-07-29T02:23:38;19.90;99.90
15328;DHT22;7764;51.430;6.840;2022-07-29T02:26:06;19.90;99.90
15328;DHT22;7764;51.430;6.840;2022-07-29T02:28:34;19.80;99.90
15328;DHT22;7764;51.430;6.840;2022-07-29T02:31:02;19.80;99.90
15328;DHT22;7764;51.430;6.840;2022-07-29T02:33:30;19.80;99.90
15328;DHT22;7764;51.430;6.840;2022-07-29T02:36:00;19.80;99.90
15328;DHT22;7764;51.430;6.840;2022-07-29T02:38:28;19.80;99.90
15328;DHT22;7764;51.430;6.840;2022-07-29T02:41:16;19.80;99.90
15328;DHT22;7764;51.430;6.840;2022-07-29T02:43:46;19.90;99.90
15328;DHT22;7764;51.430;6.840;2022-07-29T02:46:18;19.80;99.90
15328;DHT22;7764;51.430;6.840;2022-07-29T02:48:55;19.70;99.90
15328;DHT22;7764;51.430;6.840;2022-07-29T02:51:28;19.70;99.90
15328;DHT22;7764;51.430;6.840;2022-07-29T02:54:00;19.60;99.90
15328;DHT22;7764;51.430;6.840;2022-07-29T02:56:30;19.50;99.90
15328;DHT22;7764;51.430;6.840;2022-07-29T02:59:03;19.60;99.90
15328;DHT22;7764;51.430;6.840;2022-07-29T03:01:32;19.50;99.90
15328;DHT22;7764;51.430;6.840;2022-07-29T03:04:03;19.60;99.90
15328;DHT22;7764;51.430;6.840;2022-07-29T03:06:33;19.60;99.90
15328;DHT22;7764;51.430;6.840;2022-07-29T03:09:01;19.60;99.90
15328;DHT22;7764;51.430;6.840;2022-07-29T03:11:28;19.50;99.90
15328;DHT22;7764;51.430;6.840;2022-07-29T03:13:56;19.30;99.90
15328;DHT22;7764;51.430;6.840;2022-07-29T03:16:23;19.30;99.90
15328;DHT22;7764;51.430;6.840;2022-07-29T03:18:51;19.20;99.90
15328;DHT22;7764;51.430;6.840;2022-07-29T03:21:19;19.20;99.90
15328;DHT22;7764;51.430;6.840;2022-07-29T03:23:47;19.10;99.90
15328;DHT22;7764;51.430;6.840;2022-07-29T03:26:14;19.10;99.90
15328;DHT22;7764;51.430;6.840;2022-07-29T03:28:41;19.00;99.90
15328;DHT22;7764;51.430;6.840;2022-07-29T03:31:08;19.00;99.90
15328;DHT22;7764;51.430;6.840;2022-07-29T03:33:35;18.90;99.90
15328;DHT22;7764;51.430;6.840;2022-07-29T03:36:02;18.80;99.90
15328;DHT22;7764;51.430;6.840;2022-07-29T03:38:30;18.80;99.90
15328;DHT22;7764;51.430;6.840;2022-07-29T03:41:03;18.70;99.90
15328;DHT22;7764;51.430;6.840;2022-07-29T03:43:34;18.70;99.90
15328;DHT22;7764;51.430;6.840;2022-07-29T03:46:04;18.70;99.90
15328;DHT22;7764;51.430;6.840;2022-07-29T03:48:33;18.70;99.90
15328;DHT22;7764;51.430;6.840;2022-07-29T03:51:01;18.70;99.90
15328;DHT22;7764;51.430;6.840;2022-07-29T03:53:28;18.80;99.90
15328;DHT22;7764;51.430;6.840;2022-07-29T03:56:00;18.70;99.90
15328;DHT22;7764;51.430;6.840;2022-07-29T03:58:30;18.80;99.90
15328;DHT22;7764;51.430;6.840;2022-07-29T04:00:58;18.70;99.90
15328;DHT22;7764;51.430;6.840;2022-07-29T04:03:25;18.70;99.90
15328;DHT22;7764;51.430;6.840;2022-07-29T04:05:59;18.60;99.90
15328;DHT22;7764;51.430;6.840;2022-07-29T04:08:26;18.60;99.90
15328;DHT22;7764;51.430;6.840;2022-07-29T04:10:53;18.50;99.90
15328;DHT22;7764;51.430;6.840;2022-07-29T04:13:22;18.50;99.90
15328;DHT22;7764;51.430;6.840;2022-07-29T04:15:49;18.40;99.90
15328;DHT22;7764;51.430;6.840;2022-07-29T04:18:16;18.30;99.90
15328;DHT22;7764;51.430;6.840;2022-07-29T04:20:43;18.40;99.90
15328;DHT22;7764;51.430;6.840;2022-07-29T04:23:10;18.40;99.90
15328;DHT22;7764;51.430;6.840;2022-07-29T04:25:37;18.40;99.90
15328;DHT22;7764;51.430;6.840;2022-07-29T04:28:05;18.40;99.90
15328;DHT22;7764;51.430;6.840;2022-07-29T04:30:34;18.30;99.90
15328;DHT22;7764;51.430;6.840;2022-07-29T04:33:03;18.20;99.90
15328;DHT22;7764;51.430;6.840;2022-07-29T04:35:32;18.10;99.90
15328;DHT22;7764;51.430;6.840;2022-07-29T04:38:00;18.10;99.90
15328;DHT22;7764;51.430;6.840;2022-07-29T04:40:27;18.20;99.90
15328;DHT22;7764;51.430;6.840;2022-07-29T04:42:54;18.20;99.90
15328;DHT22;7764;51.430;6.840;2022-07-29T04:45:21;18.20;99.90
15328;DHT22;7764;51.430;6.840;2022-07-29T04:47:49;18.20;99.90
15328;DHT22;7764;51.430;6.840;2022-07-29T04:50:16;18.20;99.90
15328;DHT22;7764;51.430;6.840;2022-07-29T04:52:43;18.10;99.90
15328;DHT22;7764;51.430;6.840;2022-07-29T04:55:10;18.20;99.90
15328;DHT22;7764;51.430;6.840;2022-07-29T04:57:37;18.20;99.90
15328;DHT22;7764;51.430;6.840;2022-07-29T05:00:06;18.20;99.90
15328;DHT22;7764;51.430;6.840;2022-07-29T05:02:33;18.20;99.90
15328;DHT22;7764;51.430;6.840;2022-07-29T05:05:01;18.20;99.90
15328;DHT22;7764;51.430;6.840;2022-07-29T05:07:28;18.20;99.90
15328;DHT22;7764;51.430;6.840;2022-07-29T05:09:55;18.30;99.90
15328;DHT22;7764;51.430;6.840;2022-07-29T05:12:22;18.30;99.90
15328;DHT22;7764;51.430;6.840;2022-07-29T05:14:49;18.30;99.90
15328;DHT22;7764;51.430;6.840;2022-07-29T05:17:16;18.30;99.90
15328;DHT22;7764;51.430;6.840;2022-07-29T05:19:43;18.40;99.90
15328;DHT22;7764;51.430;6.840;2022-07-29T05:22:12;18.50;99.90
15328;DHT22;7764;51.430;6.840;2022-07-29T05:24:39;18.50;99.90
15328;DHT22;7764;51.430;6.840;2022-07-29T05:27:07;18.50;99.90
15328;DHT22;7764;51.430;6.840;2022-07-29T05:29:34;18.50;99.90
15328;DHT22;7764;51.430;6.840;2022-07-29T05:32:02;18.40;99.90
15328;DHT22;7764;51.430;6.840;2022-07-29T05:34:29;18.50;99.90
15328;DHT22;7764;51.430;6.840;2022-07-29T05:36:57;18.50;99.90
15328;DHT22;7764;51.430;6.840;2022-07-29T05:39:25;18.40;99.90
15328;DHT22;7764;51.430;6.840;2022-07-29T05:41:52;18.40;99.90
15328;DHT22;7764;51.430;6.840;2022-07-29T05:44:19;18.20;99.90
15328;DHT22;7764;51.430;6.840;2022-07-29T05:46:45;18.00;99.90
15328;DHT22;7764;51.430;6.840;2022-07-29T05:49:13;17.80;99.90
15328;DHT22;7764;51.430;6.840;2022-07-29T05:51:40;17.70;99.90
15328;DHT22;7764;51.430;6.840;2022-07-29T05:54:06;17.60;99.90
15328;DHT22;7764;51.430;6.840;2022-07-29T05:56:35;17.60;99.90
15328;DHT22;7764;51.430;6.840;2022-07-29T05:59:02;17.60;99.90
15328;DHT22;7764;51.430;6.840;2022-07-29T06:01:29;17.50;99.90
15328;DHT22;7764;51.430;6.840;2022-07-29T06:03:56;17.60;99.90
15328;DHT22;7764;51.430;6.840;2022-07-29T06:06:23;17.50;99.90
15328;DHT22;7764;51.430;6.840;2022-07-29T06:08:50;17.50;99.90
15328;DHT22;7764;51.430;6.840;2022-07-29T06:11:17;17.50;99.90
15328;DHT22;7764;51.430;6.840;2022-07-29T06:13:45;17.40;99.90
15328;DHT22;7764;51.430;6.840;2022-07-29T06:16:12;17.30;99.90
15328;DHT22;7764;51.430;6.840;2022-07-29T06:18:39;17.30;99.90
15328;DHT22;7764;51.430;6.840;2022-07-29T06:21:08;17.30;99.90
15328;DHT22;7764;51.430;6.840;2022-07-29T06:23:35;17.40;99.90
15328;DHT22;7764;51.430;6.840;2022-07-29T06:26:03;17.40;99.90
15328;DHT22;7764;51.430;6.840;2022-07-29T06:28:30;17.50;99.90
15328;DHT22;7764;51.430;6.840;2022-07-29T06:30:58;17.50;99.90
15328;DHT22;7764;51.430;6.840;2022-07-29T06:33:25;17.50;99.90
15328;DHT22;7764;51.430;6.840;2022-07-29T06:35:52;17.50;99.90
15328;DHT22;7764;51.430;6.840;2022-07-29T06:38:19;17.60;99.90
15328;DHT22;7764;51.430;6.840;2022-07-29T06:40:46;17.70;99.90
15328;DHT22;7764;51.430;6.840;2022-07-29T06:43:30;17.70;99.90
15328;DHT22;7764;51.430;6.840;2022-07-29T06:46:03;17.80;99.90
15328;DHT22;7764;51.430;6.840;2022-07-29T06:48:31;18.00;99.90
15328;DHT22;7764;51.430;6.840;2022-07-29T06:50:59;18.20;99.90
15328;DHT22;7764;51.430;6.840;2022-07-29T06:53:26;18.20;99.90
15328;DHT22;7764;51.430;6.840;2022-07-29T06:55:53;18.20;99.90
15328;DHT22;7764;51.430;6.840;2022-07-29T06:58:19;18.30;99.90
15328;DHT22;7764;51.430;6.840;2022-07-29T07:00:47;18.30;99.90
15328;DHT22;7764;51.430;6.840;2022-07-29T07:03:16;18.40;99.90
15328;DHT22;7764;51.430;6.840;2022-07-29T07:05:44;18.30;99.90
15328;DHT22;7764;51.430;6.840;2022-07-29T07:08:11;18.40;99.90
15328;DHT22;7764;51.430;6.840;2022-07-29T07:10:39;18.40;99.90
15328;DHT22;7764;51.430;6.840;2022-07-29T07:13:06;18.40;99.90
15328;DHT22;7764;51.430;6.840;2022-07-29T07:15:35;18.40;99.90
15328;DHT22;7764;51.430;6.840;2022-07-29T07:18:02;18.40;99.90
15328;DHT22;7764;51.430;6.840;2022-07-29T07:20:30;18.30;99.90
15328;DHT22;7764;51.430;6.840;2022-07-29T07:22:57;18.20;99.90
15328;DHT22;7764;51.430;6.840;2022-07-29T07:25:24;18.10;99.90
15328;DHT22;7764;51.430;6.840;2022-07-29T07:27:51;18.20;99.90
15328;DHT22;7764;51.430;6.840;2022-07-29T07:30:18;18.30;99.90
15328;DHT22;7764;51.430;6.840;2022-07-29T07:32:45;18.30;99.90
15328;DHT22;7764;51.430;6.840;2022-07-29T07:35:12;18.30;99.90
15328;DHT22;7764;51.430;6.840;2022-07-29T07:37:41;18.30;99.90
15328;DHT22;7764;51.430;6.840;2022-07-29T07:40:09;18.40;99.90
15328;DHT22;7764;51.430;6.840;2022-07-29T07:42:37;18.40;99.90
15328;DHT22;7764;51.430;6.840;2022-07-29T07:45:04;18.50;99.90
15328;DHT22;7764;51.430;6.840;2022-07-29T07:47:32;18.40;99.90
15328;DHT22;7764;51.430;6.840;2022-07-29T07:49:59;18.50;99.90
15328;DHT22;7764;51.430;6.840;2022-07-29T07:52:26;18.50;99.90
15328;DHT22;7764;51.430;6.840;2022-07-29T07:54:55;18.50;99.90
15328;DHT22;7764;51.430;6.840;2022-07-29T07:57:22;18.40;99.90
15328;DHT22;7764;51.430;6.840;2022-07-29T07:59:49;18.50;99.90
15328;DHT22;7764;51.430;6.840;2022-07-29T08:02:16;18.50;99.90
15328;DHT22;7764;51.430;6.840;2022-07-29T08:04:43;18.50;99.90
15328;DHT22;7764;51.430;6.840;2022-07-29T08:07:10;18.50;99.90
15328;DHT22;7764;51.430;6.840;2022-07-29T08:09:37;18.40;99.90
15328;DHT22;7764;51.430;6.840;2022-07-29T08:12:05;18.30;99.90
15328;DHT22;7764;51.430;6.840;2022-07-29T08:14:32;18.40;99.90
15328;DHT22;7764;51.430;6.840;2022-07-29T08:17:00;18.50;99.90
15328;DHT22;7764;51.430;6.840;2022-07-29T08:19:27;18.50;99.90
15328;DHT22;7764;51.430;6.840;2022-07-29T08:21:53;18.40;99.90
15328;DHT22;7764;51.430;6.840;2022-07-29T08:24:21;18.40;99.90
15328;DHT22;7764;51.430;6.840;2022-07-29T08:27:07;18.30;99.90
15328;DHT22;7764;51.430;6.840;2022-07-29T08:29:34;18.20;99.90
15328;DHT22;7764;51.430;6.840;2022-07-29T08:32:01;18.20;99.90
15328;DHT22;7764;51.430;6.840;2022-07-29T08:34:28;18.30;99.90
15328;DHT22;7764;51.430;6.840;2022-07-29T08:36:55;18.30;99.90
15328;DHT22;7764;51.430;6.840;2022-07-29T08:39:23;18.30;99.90
15328;DHT22;7764;51.430;6.840;2022-07-29T08:41:50;18.40;99.90
15328;DHT22;7764;51.430;6.840;2022-07-29T08:44:19;18.60;99.90
15328;DHT22;7764;51.430;6.840;2022-07-29T08:46:48;18.80;99.90
15328;DHT22;7764;51.430;6.840;2022-07-29T08:49:16;18.80;99.90
15328;DHT22;7764;51.430;6.840;2022-07-29T08:51:44;18.90;99.90
15328;DHT22;7764;51.430;6.840;2022-07-29T08:54:16;18.90;99.90
15328;DHT22;7764;51.430;6.840;2022-07-29T08:56:44;19.00;99.90
15328;DHT22;7764;51.430;6.840;2022-07-29T08:59:13;18.90;99.90
15328;DHT22;7764;51.430;6.840;2022-07-29T09:01:43;19.00;99.90
15328;DHT22;7764;51.430;6.840;2022-07-29T09:04:12;18.90;99.90
15328;DHT22;7764;51.430;6.840;2022-07-29T09:06:43;18.90;99.90
15328;DHT22;7764;51.430;6.840;2022-07-29T09:09:11;18.90;99.90
15328;DHT22;7764;51.430;6.840;2022-07-29T09:11:40;19.00;99.90
15328;DHT22;7764;51.430;6.840;2022-07-29T09:14:08;19.00;99.90
15328;DHT22;7764;51.430;6.840;2022-07-29T09:16:51;19.00;99.90
15328;DHT22;7764;51.430;6.840;2022-07-29T09:19:23;19.00;99.90
15328;DHT22;7764;51.430;6.840;2022-07-29T09:21:51;18.90;99.90
15328;DHT22;7764;51.430;6.840;2022-07-29T09:24:26;18.90;99.90
15328;DHT22;7764;51.430;6.840;2022-07-29T09:26:53;19.00;99.90
15328;DHT22;7764;51.430;6.840;2022-07-29T09:29:22;19.00;99.90
15328;DHT22;7764;51.430;6.840;2022-07-29T09:31:52;19.10;99.90
15328;DHT22;7764;51.430;6.840;2022-07-29T09:34:22;19.20;99.90
15328;DHT22;7764;51.430;6.840;2022-07-29T09:36:51;19.20;99.90
15328;DHT22;7764;51.430;6.840;2022-07-29T09:39:27;19.20;99.90
15328;DHT22;7764;51.430;6.840;2022-07-29T09:41:58;19.10;99.90
15328;DHT22;7764;51.430;6.840;2022-07-29T09:44:26;19.20;99.90
15328;DHT22;7764;51.430;6.840;2022-07-29T09:47:00;19.20;99.90
15328;DHT22;7764;51.430;6.840;2022-07-29T09:49:31;19.10;99.90
15328;DHT22;7764;51.430;6.840;2022-07-29T09:52:05;19.20;99.90
15328;DHT22;7764;51.430;6.840;2022-07-29T09:54:33;19.20;99.90
15328;DHT22;7764;51.430;6.840;2022-07-29T09:57:04;19.30;99.90
15328;DHT22;7764;51.430;6.840;2022-07-29T09:59:32;19.40;99.90
15328;DHT22;7764;51.430;6.840;2022-07-29T10:02:01;19.40;99.90
15328;DHT22;7764;51.430;6.840;2022-07-29T10:04:38;19.40;99.90
15328;DHT22;7764;51.430;6.840;2022-07-29T10:07:05;19.40;99.90
15328;DHT22;7764;51.430;6.840;2022-07-29T10:09:33;19.40;99.90
15328;DHT22;7764;51.430;6.840;2022-07-29T10:12:09;19.40;99.90
15328;DHT22;7764;51.430;6.840;2022-07-29T10:14:37;19.40;99.90
15328;DHT22;7764;51.430;6.840;2022-07-29T10:17:07;19.50;99.90
15328;DHT22;7764;51.430;6.840;2022-07-29T10:19:35;19.50;99.90
15328;DHT22;7764;51.430;6.840;2022-07-29T10:22:05;19.40;99.90
15328;DHT22;7764;51.430;6.840;2022-07-29T10:24:33;19.60;99.90
15328;DHT22;7764;51.430;6.840;2022-07-29T10:27:02;19.70;99.90
15328;DHT22;7764;51.430;6.840;2022-07-29T10:29:29;19.80;99.90
15328;DHT22;7764;51.430;6.840;2022-07-29T10:32:30;19.90;99.90
15328;DHT22;7764;51.430;6.840;2022-07-29T10:38:10;20.20;99.90
15328;DHT22;7764;51.430;6.840;2022-07-29T10:40:49;20.30;99.90
15328;DHT22;7764;51.430;6.840;2022-07-29T10:43:37;20.60;99.90
15328;DHT22;7764;51.430;6.840;2022-07-29T10:46:07;20.90;99.90
15328;DHT22;7764;51.430;6.840;2022-07-29T10:49:05;21.00;99.90
15328;DHT22;7764;51.430;6.840;2022-07-29T10:51:51;21.10;99.90
15328;DHT22;7764;51.430;6.840;2022-07-29T10:54:19;21.30;99.90
15328;DHT22;7764;51.430;6.840;2022-07-29T10:57:14;21.50;99.90
15328;DHT22;7764;51.430;6.840;2022-07-29T10:59:45;21.70;99.90
15328;DHT22;7764;51.430;6.840;2022-07-29T11:02:43;21.60;99.90
15328;DHT22;7764;51.430;6.840;2022-07-29T11:05:13;21.90;99.90
15328;DHT22;7764;51.430;6.840;2022-07-29T11:10:39;22.20;99.90
15328;DHT22;7764;51.430;6.840;2022-07-29T11:13:06;22.30;99.90
15328;DHT22;7764;51.430;6.840;2022-07-29T11:15:52;22.50;99.90
15328;DHT22;7764;51.430;6.840;2022-07-29T11:18:20;22.60;99.90
15328;DHT22;7764;51.430;6.840;2022-07-29T11:20:50;22.50;99.90
15328;DHT22;7764;51.430;6.840;2022-07-29T11:23:26;22.50;99.90
15328;DHT22;7764;51.430;6.840;2022-07-29T11:26:13;22.70;99.90
15328;DHT22;7764;51.430;6.840;2022-07-29T11:28:50;22.80;99.90
15328;DHT22;7764;51.430;6.840;2022-07-29T11:31:29;22.90;99.90
15328;DHT22;7764;51.430;6.840;2022-07-29T11:34:05;22.90;99.90
15328;DHT22;7764;51.430;6.840;2022-07-29T11:37:17;23.00;99.90
15328;DHT22;7764;51.430;6.840;2022-07-29T11:39:45;23.10;99.90
15328;DHT22;7764;51.430;6.840;2022-07-29T11:42:38;23.10;99.90
15328;DHT22;7764;51.430;6.840;2022-07-29T11:45:08;23.40;99.90
15328;DHT22;7764;51.430;6.840;2022-07-29T11:47:38;23.40;99.90
15328;DHT22;7764;51.430;6.840;2022-07-29T11:50:07;23.40;99.90
15328;DHT22;7764;51.430;6.840;2022-07-29T11:52:38;23.20;99.90
15328;DHT22;7764;51.430;6.840;2022-07-29T11:55:10;23.30;99.90
15328;DHT22;7764;51.430;6.840;2022-07-29T11:57:44;23.50;99.90
15328;DHT22;7764;51.430;6.840;2022-07-29T12:00:12;23.60;99.90
15328;DHT22;7764;51.430;6.840;2022-07-29T12:02:47;23.40;99.90
15328;DHT22;7764;51.430;6.840;2022-07-29T12:05:14;23.50;99.90
15328;DHT22;7764;51.430;6.840;2022-07-29T12:07:42;23.50;99.90
15328;DHT22;7764;51.430;6.840;2022-07-29T12:10:10;23.50;99.90
15328;DHT22;7764;51.430;6.840;2022-07-29T12:12:37;23.50;99.90
15328;DHT22;7764;51.430;6.840;2022-07-29T12:15:13;23.50;99.90
15328;DHT22;7764;51.430;6.840;2022-07-29T12:17:40;23.50;99.90
15328;DHT22;7764;51.430;6.840;2022-07-29T12:20:08;23.60;99.90
15328;DHT22;7764;51.430;6.840;2022-07-29T12:22:37;23.40;99.90
15328;DHT22;7764;51.430;6.840;2022-07-29T12:25:09;23.60;99.90
15328;DHT22;7764;51.430;6.840;2022-07-29T12:27:37;23.60;99.90
15328;DHT22;7764;51.430;6.840;2022-07-29T12:30:07;23.60;99.90
15328;DHT22;7764;51.430;6.840;2022-07-29T12:32:36;23.60;99.90
15328;DHT22;7764;51.430;6.840;2022-07-29T12:35:04;23.50;99.90
15328;DHT22;7764;51.430;6.840;2022-07-29T12:37:33;23.40;99.90
15328;DHT22;7764;51.430;6.840;2022-07-29T12:40:00;23.40;99.90
15328;DHT22;7764;51.430;6.840;2022-07-29T12:42:29;23.50;99.90
15328;DHT22;7764;51.430;6.840;2022-07-29T12:44:58;23.60;99.90
15328;DHT22;7764;51.430;6.840;2022-07-29T12:47:25;23.60;99.90
15328;DHT22;7764;51.430;6.840;2022-07-29T12:50:08;23.70;99.90
15328;DHT22;7764;51.430;6.840;2022-07-29T12:52:36;23.70;99.90
15328;DHT22;7764;51.430;6.840;2022-07-29T12:55:04;23.70;99.90
15328;DHT22;7764;51.430;6.840;2022-07-29T12:57:44;23.80;99.90
15328;DHT22;7764;51.430;6.840;2022-07-29T13:00:13;23.80;99.90
15328;DHT22;7764;51.430;6.840;2022-07-29T13:02:41;23.70;99.90
15328;DHT22;7764;51.430;6.840;2022-07-29T13:05:11;23.80;99.90
15328;DHT22;7764;51.430;6.840;2022-07-29T13:07:39;23.80;99.90
15328;DHT22;7764;51.430;6.840;2022-07-29T13:10:12;23.80;99.90
15328;DHT22;7764;51.430;6.840;2022-07-29T13:13:01;23.80;99.90
15328;DHT22;7764;51.430;6.840;2022-07-29T13:15:29;23.90;99.90
15328;DHT22;7764;51.430;6.840;2022-07-29T13:17:57;24.00;99.90
15328;DHT22;7764;51.430;6.840;2022-07-29T13:20:27;23.90;99.90
15328;DHT22;7764;51.430;6.840;2022-07-29T13:22:55;24.00;99.90
15328;DHT22;7764;51.430;6.840;2022-07-29T13:25:27;23.80;99.90
15328;DHT22;7764;51.430;6.840;2022-07-29T13:27:59;23.80;99.90
15328;DHT22;7764;51.430;6.840;2022-07-29T13:30:26;23.90;99.90
15328;DHT22;7764;51.430;6.840;2022-07-29T13:32:53;24.10;99.90
15328;DHT22;7764;51.430;6.840;2022-07-29T13:35:21;24.10;99.90
15328;DHT22;7764;51.430;6.840;2022-07-29T13:37:49;24.00;99.90
15328;DHT22;7764;51.430;6.840;2022-07-29T13:40:16;24.20;99.90
15328;DHT22;7764;51.430;6.840;2022-07-29T13:42:43;24.20;99.90
15328;DHT22;7764;51.430;6.840;2022-07-29T13:45:13;24.30;99.90
15328;DHT22;7764;51.430;6.840;2022-07-29T13:47:40;24.20;99.90
15328;DHT22;7764;51.430;6.840;2022-07-29T13:50:10;24.20;99.90
15328;DHT22;7764;51.430;6.840;2022-07-29T13:52:37;24.00;99.90
15328;DHT22;7764;51.430;6.840;2022-07-29T13:55:05;23.80;99.90
15328;DHT22;7764;51.430;6.840;2022-07-29T13:57:33;23.80;99.90
15328;DHT22;7764;51.430;6.840;2022-07-29T14:00:06;23.80;99.90
15328;DHT22;7764;51.430;6.840;2022-07-29T14:02:35;23.70;99.90
15328;DHT22;7764;51.430;6.840;2022-07-29T14:05:04;23.70;99.90
15328;DHT22;7764;51.430;6.840;2022-07-29T14:07:31;23.80;99.90
15328;DHT22;7764;51.430;6.840;2022-07-29T14:10:00;23.70;99.90
15328;DHT22;7764;51.430;6.840;2022-07-29T14:12:27;23.80;99.90
15328;DHT22;7764;51.430;6.840;2022-07-29T14:14:54;23.70;99.90
15328;DHT22;7764;51.430;6.840;2022-07-29T14:17:21;23.80;99.90
15328;DHT22;7764;51.430;6.840;2022-07-29T14:19:50;23.80;99.90
15328;DHT22;7764;51.430;6.840;2022-07-29T14:22:17;23.90;99.90
15328;DHT22;7764;51.430;6.840;2022-07-29T14:24:44;23.80;99.90
15328;DHT22;7764;51.430;6.840;2022-07-29T14:27:13;23.90;99.90
15328;DHT22;7764;51.430;6.840;2022-07-29T14:29:40;23.80;99.90
15328;DHT22;7764;51.430;6.840;2022-07-29T14:32:09;23.80;99.90
15328;DHT22;7764;51.430;6.840;2022-07-29T14:34:38;23.70;99.90
15328;DHT22;7764;51.430;6.840;2022-07-29T14:37:09;23.80;99.90
15328;DHT22;7764;51.430;6.840;2022-07-29T14:39:36;23.90;99.90
15328;DHT22;7764;51.430;6.840;2022-07-29T14:42:04;23.90;99.90
15328;DHT22;7764;51.430;6.840;2022-07-29T14:44:33;23.90;99.90
15328;DHT22;7764;51.430;6.840;2022-07-29T14:47:01;24.00;99.90
15328;DHT22;7764;51.430;6.840;2022-07-29T14:49:28;24.00;99.90
15328;DHT22;7764;51.430;6.840;2022-07-29T14:51:58;23.90;99.90
15328;DHT22;7764;51.430;6.840;2022-07-29T14:54:27;24.00;99.90
15328;DHT22;7764;51.430;6.840;2022-07-29T14:56:54;23.90;99.90
15328;DHT22;7764;51.430;6.840;2022-07-29T14:59:29;23.80;99.90
15328;DHT22;7764;51.430;6.840;2022-07-29T15:01:55;23.90;99.90
15328;DHT22;7764;51.430;6.840;2022-07-29T15:04:22;23.90;99.90
15328;DHT22;7764;51.430;6.840;2022-07-29T15:06:50;23.90;99.90
15328;DHT22;7764;51.430;6.840;2022-07-29T15:09:17;23.80;99.90
15328;DHT22;7764;51.430;6.840;2022-07-29T15:11:45;23.70;99.90
15328;DHT22;7764;51.430;6.840;2022-07-29T15:14:14;23.80;99.90
15328;DHT22;7764;51.430;6.840;2022-07-29T15:16:41;23.90;99.90
15328;DHT22;7764;51.430;6.840;2022-07-29T15:19:08;23.90;99.90
15328;DHT22;7764;51.430;6.840;2022-07-29T15:21:35;24.00;99.90
15328;DHT22;7764;51.430;6.840;2022-07-29T15:24:04;24.00;99.90
15328;DHT22;7764;51.430;6.840;2022-07-29T15:26:32;24.10;99.90
15328;DHT22;7764;51.430;6.840;2022-07-29T15:29:01;24.10;99.90
15328;DHT22;7764;51.430;6.840;2022-07-29T15:31:28;24.10;99.90
15328;DHT22;7764;51.430;6.840;2022-07-29T15:33:54;24.20;99.90
15328;DHT22;7764;51.430;6.840;2022-07-29T15:36:21;24.10;99.90
15328;DHT22;7764;51.430;6.840;2022-07-29T15:38:48;24.20;99.90
15328;DHT22;7764;51.430;6.840;2022-07-29T15:41:16;24.30;99.90
15328;DHT22;7764;51.430;6.840;2022-07-29T15:43:43;24.30;99.90
15328;DHT22;7764;51.430;6.840;2022-07-29T15:46:14;24.20;99.90
15328;DHT22;7764;51.430;6.840;2022-07-29T15:48:59;24.30;99.90
15328;DHT22;7764;51.430;6.840;2022-07-29T15:51:26;24.40;99.90
15328;DHT22;7764;51.430;6.840;2022-07-29T15:53:54;24.50;99.90
15328;DHT22;7764;51.430;6.840;2022-07-29T15:56:21;24.50;99.90
15328;DHT22;7764;51.430;6.840;2022-07-29T15:58:48;24.50;99.90
15328;DHT22;7764;51.430;6.840;2022-07-29T16:01:16;24.50;99.90
15328;DHT22;7764;51.430;6.840;2022-07-29T16:03:43;24.40;99.90
15328;DHT22;7764;51.430;6.840;2022-07-29T16:06:10;24.40;99.90